To NAV CANADA Home Page Login to a new session Search on AWWS site Feedback and Comments Disclaimer Vers la page française équivalente Tips FAQ What's new on the site To the Forecasts and Observations / NOTAM section To "File a Flight Plan" website Publications and other links Update of the User's profile FIC Telephone Numbers My Weather Data Folder Route Weather Data Regional Weather Data Local Weather Data To the Forecasts and Observations / NOTAM section
Request Generated 07/08/2015 at 06:43:15 UTC . Weather information available at that time is displayed.

METAR/TAF

LYNN LAKE/MB    (show WxCam)

METAR CYYL 080600Z AUTO 26005KT 9SM SCT180 07/04 A2988 RMK SLP131=
METAR CYYL 080500Z AUTO 24005KT 9SM OVC090 08/05 A2988 RMK SLP132=
METAR CYYL 080400Z AUTO 28004KT 9SM CLR 08/05 A2990 RMK SLP137=

TAF CYYL 080638Z 0807/0819 26005KT P6SM SCT180
FM081700 25012KT P6SM SCT050
RMK FCST BASED ON AUTO OBS. NXT FCST BY 081300Z=
Your time UTC time
Weather data provided by Environment Canada and NAV CANADA